sensor_id;sensor_type;location;lat;lon;timestamp;P1;durP1;ratioP1;P2;durP2;ratioP2
59846;SDS011;45728;48.788;2.302;2022-07-05T00:01:49;2.67;;;1.10;;
59846;SDS011;45728;48.788;2.302;2022-07-05T00:04:15;2.00;;;1.30;;
59846;SDS011;45728;48.788;2.302;2022-07-05T00:06:41;4.45;;;1.75;;
59846;SDS011;45728;48.788;2.302;2022-07-05T00:09:27;3.95;;;1.73;;
59846;SDS011;45728;48.788;2.302;2022-07-05T00:11:53;3.08;;;1.40;;
59846;SDS011;45728;48.788;2.302;2022-07-05T00:14:19;4.82;;;1.25;;
59846;SDS011;45728;48.788;2.302;2022-07-05T00:16:45;1.80;;;1.20;;
59846;SDS011;45728;48.788;2.302;2022-07-05T00:19:11;2.95;;;1.10;;
59846;SDS011;45728;48.788;2.302;2022-07-05T00:21:38;3.63;;;1.52;;
59846;SDS011;45728;48.788;2.302;2022-07-05T00:24:04;3.25;;;1.25;;
59846;SDS011;45728;48.788;2.302;2022-07-05T00:26:30;4.28;;;1.40;;
59846;SDS011;45728;48.788;2.302;2022-07-05T00:28:56;3.67;;;1.30;;
59846;SDS011;45728;48.788;2.302;2022-07-05T00:31:22;6.45;;;1.50;;
59846;SDS011;45728;48.788;2.302;2022-07-05T00:33:48;4.43;;;1.67;;
59846;SDS011;45728;48.788;2.302;2022-07-05T00:36:14;5.53;;;1.50;;
59846;SDS011;45728;48.788;2.302;2022-07-05T00:38:40;3.28;;;1.20;;
59846;SDS011;45728;48.788;2.302;2022-07-05T00:41:06;2.17;;;1.20;;
59846;SDS011;45728;48.788;2.302;2022-07-05T00:43:32;3.80;;;1.52;;
59846;SDS011;45728;48.788;2.302;2022-07-05T00:45:58;5.07;;;1.92;;
59846;SDS011;45728;48.788;2.302;2022-07-05T00:48:24;2.70;;;1.30;;
59846;SDS011;45728;48.788;2.302;2022-07-05T00:50:51;2.70;;;1.13;;
59846;SDS011;45728;48.788;2.302;2022-07-05T00:53:17;4.20;;;1.40;;
59846;SDS011;45728;48.788;2.302;2022-07-05T00:55:44;3.00;;;1.17;;
59846;SDS011;45728;48.788;2.302;2022-07-05T00:58:10;3.50;;;1.40;;
59846;SDS011;45728;48.788;2.302;2022-07-05T01:00:37;8.07;;;1.50;;
59846;SDS011;45728;48.788;2.302;2022-07-05T01:03:03;3.80;;;1.55;;
59846;SDS011;45728;48.788;2.302;2022-07-05T01:05:30;1.58;;;1.10;;
59846;SDS011;45728;48.788;2.302;2022-07-05T01:07:58;2.15;;;1.30;;
59846;SDS011;45728;48.788;2.302;2022-07-05T01:10:26;5.07;;;1.50;;
59846;SDS011;45728;48.788;2.302;2022-07-05T01:12:53;4.15;;;1.30;;
59846;SDS011;45728;48.788;2.302;2022-07-05T01:15:22;2.63;;;1.13;;
59846;SDS011;45728;48.788;2.302;2022-07-05T01:17:49;3.58;;;1.30;;
59846;SDS011;45728;48.788;2.302;2022-07-05T01:20:15;3.00;;;1.38;;
59846;SDS011;45728;48.788;2.302;2022-07-05T01:22:49;4.45;;;1.50;;
59846;SDS011;45728;48.788;2.302;2022-07-05T01:25:18;3.40;;;1.38;;
59846;SDS011;45728;48.788;2.302;2022-07-05T01:27:46;5.82;;;1.55;;
59846;SDS011;45728;48.788;2.302;2022-07-05T01:30:13;5.00;;;1.75;;
59846;SDS011;45728;48.788;2.302;2022-07-05T01:32:39;3.55;;;1.45;;
59846;SDS011;45728;48.788;2.302;2022-07-05T01:35:05;2.85;;;1.40;;
59846;SDS011;45728;48.788;2.302;2022-07-05T01:37:33;4.70;;;1.60;;
59846;SDS011;45728;48.788;2.302;2022-07-05T01:40:01;4.88;;;1.50;;
59846;SDS011;45728;48.788;2.302;2022-07-05T01:42:28;4.45;;;1.58;;
59846;SDS011;45728;48.788;2.302;2022-07-05T01:44:54;3.10;;;1.13;;
59846;SDS011;45728;48.788;2.302;2022-07-05T01:47:20;5.57;;;1.40;;
59846;SDS011;45728;48.788;2.302;2022-07-05T01:49:47;4.63;;;1.25;;
59846;SDS011;45728;48.788;2.302;2022-07-05T01:52:16;4.40;;;1.20;;
59846;SDS011;45728;48.788;2.302;2022-07-05T01:54:43;2.78;;;1.30;;
59846;SDS011;45728;48.788;2.302;2022-07-05T01:57:10;5.03;;;1.77;;
59846;SDS011;45728;48.788;2.302;2022-07-05T01:59:36;2.80;;;1.27;;
59846;SDS011;45728;48.788;2.302;2022-07-05T02:02:03;3.08;;;1.55;;
59846;SDS011;45728;48.788;2.302;2022-07-05T02:04:30;2.83;;;1.48;;
59846;SDS011;45728;48.788;2.302;2022-07-05T02:06:59;6.43;;;1.90;;
59846;SDS011;45728;48.788;2.302;2022-07-05T02:11:54;5.45;;;1.70;;
59846;SDS011;45728;48.788;2.302;2022-07-05T02:14:20;4.88;;;1.98;;
59846;SDS011;45728;48.788;2.302;2022-07-05T02:16:46;6.53;;;2.20;;
59846;SDS011;45728;48.788;2.302;2022-07-05T02:19:12;3.47;;;1.60;;
59846;SDS011;45728;48.788;2.302;2022-07-05T02:21:39;5.13;;;2.00;;
59846;SDS011;45728;48.788;2.302;2022-07-05T02:24:06;3.88;;;1.92;;
59846;SDS011;45728;48.788;2.302;2022-07-05T02:26:33;6.75;;;2.20;;
59846;SDS011;45728;48.788;2.302;2022-07-05T02:28:59;6.43;;;2.08;;
59846;SDS011;45728;48.788;2.302;2022-07-05T02:31:26;7.90;;;2.25;;
59846;SDS011;45728;48.788;2.302;2022-07-05T02:33:52;6.55;;;1.95;;
59846;SDS011;45728;48.788;2.302;2022-07-05T02:36:19;5.60;;;2.03;;
59846;SDS011;45728;48.788;2.302;2022-07-05T02:38:45;5.55;;;1.85;;
59846;SDS011;45728;48.788;2.302;2022-07-05T02:41:11;7.60;;;2.40;;
59846;SDS011;45728;48.788;2.302;2022-07-05T02:43:38;9.25;;;2.60;;
59846;SDS011;45728;48.788;2.302;2022-07-05T02:46:05;6.25;;;2.30;;
59846;SDS011;45728;48.788;2.302;2022-07-05T02:48:32;9.23;;;2.70;;
59846;SDS011;45728;48.788;2.302;2022-07-05T02:51:00;7.43;;;2.50;;
59846;SDS011;45728;48.788;2.302;2022-07-05T02:53:26;10.90;;;3.03;;
59846;SDS011;45728;48.788;2.302;2022-07-05T02:55:53;5.60;;;2.35;;
59846;SDS011;45728;48.788;2.302;2022-07-05T02:58:19;6.57;;;2.65;;
59846;SDS011;45728;48.788;2.302;2022-07-05T03:00:46;5.00;;;2.58;;
59846;SDS011;45728;48.788;2.302;2022-07-05T03:03:13;10.07;;;3.45;;
59846;SDS011;45728;48.788;2.302;2022-07-05T03:05:40;9.10;;;2.85;;
59846;SDS011;45728;48.788;2.302;2022-07-05T03:08:06;8.27;;;2.65;;
59846;SDS011;45728;48.788;2.302;2022-07-05T03:10:33;9.25;;;2.38;;
59846;SDS011;45728;48.788;2.302;2022-07-05T03:12:59;7.05;;;2.40;;
59846;SDS011;45728;48.788;2.302;2022-07-05T03:15:26;6.75;;;2.20;;
59846;SDS011;45728;48.788;2.302;2022-07-05T03:17:52;9.98;;;2.70;;
59846;SDS011;45728;48.788;2.302;2022-07-05T03:20:18;6.15;;;2.08;;
59846;SDS011;45728;48.788;2.302;2022-07-05T03:22:44;7.25;;;2.20;;
59846;SDS011;45728;48.788;2.302;2022-07-05T03:25:10;7.18;;;2.40;;
59846;SDS011;45728;48.788;2.302;2022-07-05T03:27:36;7.80;;;2.30;;
59846;SDS011;45728;48.788;2.302;2022-07-05T03:30:03;5.68;;;2.20;;
59846;SDS011;45728;48.788;2.302;2022-07-05T03:32:30;6.28;;;2.53;;
59846;SDS011;45728;48.788;2.302;2022-07-05T03:34:56;5.93;;;2.25;;
59846;SDS011;45728;48.788;2.302;2022-07-05T03:37:22;6.97;;;2.50;;
59846;SDS011;45728;48.788;2.302;2022-07-05T03:39:48;7.57;;;2.60;;
59846;SDS011;45728;48.788;2.302;2022-07-05T03:42:14;6.43;;;2.22;;
59846;SDS011;45728;48.788;2.302;2022-07-05T03:44:40;7.50;;;2.30;;
59846;SDS011;45728;48.788;2.302;2022-07-05T03:47:06;6.53;;;2.33;;
59846;SDS011;45728;48.788;2.302;2022-07-05T03:49:32;6.78;;;2.30;;
59846;SDS011;45728;48.788;2.302;2022-07-05T03:51:58;7.63;;;2.40;;
59846;SDS011;45728;48.788;2.302;2022-07-05T03:54:24;9.05;;;2.40;;
59846;SDS011;45728;48.788;2.302;2022-07-05T03:56:50;6.70;;;2.40;;
59846;SDS011;45728;48.788;2.302;2022-07-05T03:59:16;6.22;;;2.50;;
59846;SDS011;45728;48.788;2.302;2022-07-05T04:01:42;8.85;;;2.42;;
59846;SDS011;45728;48.788;2.302;2022-07-05T04:04:09;5.00;;;2.08;;
59846;SDS011;45728;48.788;2.302;2022-07-05T04:06:35;6.97;;;2.55;;
59846;SDS011;45728;48.788;2.302;2022-07-05T04:09:01;4.07;;;2.47;;
59846;SDS011;45728;48.788;2.302;2022-07-05T04:11:27;14.05;;;2.95;;
59846;SDS011;45728;48.788;2.302;2022-07-05T04:13:54;6.95;;;2.83;;
59846;SDS011;45728;48.788;2.302;2022-07-05T04:16:20;8.05;;;3.00;;
59846;SDS011;45728;48.788;2.302;2022-07-05T04:18:47;10.52;;;3.30;;
59846;SDS011;45728;48.788;2.302;2022-07-05T04:21:13;7.78;;;3.17;;
59846;SDS011;45728;48.788;2.302;2022-07-05T04:23:39;8.10;;;3.08;;
59846;SDS011;45728;48.788;2.302;2022-07-05T04:26:05;9.15;;;3.40;;
59846;SDS011;45728;48.788;2.302;2022-07-05T04:28:31;9.15;;;3.35;;
59846;SDS011;45728;48.788;2.302;2022-07-05T04:30:58;7.03;;;2.90;;
59846;SDS011;45728;48.788;2.302;2022-07-05T04:33:24;10.77;;;3.45;;
59846;SDS011;45728;48.788;2.302;2022-07-05T04:35:51;11.27;;;3.15;;
59846;SDS011;45728;48.788;2.302;2022-07-05T04:38:17;7.72;;;2.70;;
59846;SDS011;45728;48.788;2.302;2022-07-05T04:40:43;7.30;;;2.92;;
59846;SDS011;45728;48.788;2.302;2022-07-05T04:43:09;8.25;;;2.65;;
59846;SDS011;45728;48.788;2.302;2022-07-05T04:45:35;10.32;;;2.85;;
59846;SDS011;45728;48.788;2.302;2022-07-05T04:48:01;7.20;;;3.13;;
59846;SDS011;45728;48.788;2.302;2022-07-05T04:50:27;13.20;;;3.20;;
59846;SDS011;45728;48.788;2.302;2022-07-05T04:52:53;8.73;;;3.25;;
59846;SDS011;45728;48.788;2.302;2022-07-05T04:55:19;6.82;;;3.08;;
59846;SDS011;45728;48.788;2.302;2022-07-05T04:57:45;9.15;;;3.03;;
59846;SDS011;45728;48.788;2.302;2022-07-05T05:00:12;9.35;;;3.33;;
59846;SDS011;45728;48.788;2.302;2022-07-05T05:02:39;12.63;;;4.20;;
59846;SDS011;45728;48.788;2.302;2022-07-05T05:05:05;8.88;;;3.50;;
59846;SDS011;45728;48.788;2.302;2022-07-05T05:07:32;10.30;;;3.22;;
59846;SDS011;45728;48.788;2.302;2022-07-05T05:10:00;9.32;;;3.75;;
59846;SDS011;45728;48.788;2.302;2022-07-05T05:12:26;6.85;;;3.65;;
59846;SDS011;45728;48.788;2.302;2022-07-05T05:14:52;9.07;;;3.42;;
59846;SDS011;45728;48.788;2.302;2022-07-05T05:17:18;10.82;;;3.88;;
59846;SDS011;45728;48.788;2.302;2022-07-05T05:19:44;11.60;;;3.67;;
59846;SDS011;45728;48.788;2.302;2022-07-05T05:22:10;8.93;;;3.75;;
59846;SDS011;45728;48.788;2.302;2022-07-05T05:24:37;11.68;;;3.97;;
59846;SDS011;45728;48.788;2.302;2022-07-05T05:27:03;9.18;;;3.80;;
59846;SDS011;45728;48.788;2.302;2022-07-05T05:29:29;11.50;;;3.92;;
59846;SDS011;45728;48.788;2.302;2022-07-05T05:31:56;10.00;;;3.63;;
59846;SDS011;45728;48.788;2.302;2022-07-05T05:34:22;9.30;;;3.58;;
59846;SDS011;45728;48.788;2.302;2022-07-05T05:36:48;13.07;;;3.83;;
59846;SDS011;45728;48.788;2.302;2022-07-05T05:39:14;7.75;;;3.85;;
59846;SDS011;45728;48.788;2.302;2022-07-05T05:41:40;9.13;;;3.80;;
59846;SDS011;45728;48.788;2.302;2022-07-05T05:44:06;10.32;;;3.90;;
59846;SDS011;45728;48.788;2.302;2022-07-05T05:46:33;13.80;;;4.10;;
59846;SDS011;45728;48.788;2.302;2022-07-05T05:48:59;12.18;;;4.60;;
59846;SDS011;45728;48.788;2.302;2022-07-05T05:51:25;11.52;;;4.75;;
59846;SDS011;45728;48.788;2.302;2022-07-05T05:53:51;11.23;;;3.83;;
59846;SDS011;45728;48.788;2.302;2022-07-05T05:56:17;12.38;;;4.25;;
59846;SDS011;45728;48.788;2.302;2022-07-05T05:58:43;9.90;;;4.18;;
59846;SDS011;45728;48.788;2.302;2022-07-05T06:01:09;7.82;;;4.05;;
59846;SDS011;45728;48.788;2.302;2022-07-05T06:03:35;11.18;;;4.28;;
59846;SDS011;45728;48.788;2.302;2022-07-05T06:06:01;9.98;;;4.03;;
59846;SDS011;45728;48.788;2.302;2022-07-05T06:08:27;9.75;;;4.43;;
59846;SDS011;45728;48.788;2.302;2022-07-05T06:10:53;10.70;;;4.28;;
59846;SDS011;45728;48.788;2.302;2022-07-05T06:13:20;13.48;;;4.28;;
59846;SDS011;45728;48.788;2.302;2022-07-05T06:15:46;8.32;;;4.05;;
59846;SDS011;45728;48.788;2.302;2022-07-05T06:18:12;9.20;;;4.72;;
59846;SDS011;45728;48.788;2.302;2022-07-05T06:20:38;9.77;;;3.80;;
59846;SDS011;45728;48.788;2.302;2022-07-05T06:23:05;12.23;;;3.90;;
59846;SDS011;45728;48.788;2.302;2022-07-05T06:25:32;11.23;;;4.07;;
59846;SDS011;45728;48.788;2.302;2022-07-05T06:28:03;8.73;;;3.83;;
59846;SDS011;45728;48.788;2.302;2022-07-05T06:30:31;10.18;;;4.40;;
59846;SDS011;45728;48.788;2.302;2022-07-05T06:32:58;8.80;;;4.28;;
59846;SDS011;45728;48.788;2.302;2022-07-05T06:35:25;8.80;;;4.18;;
59846;SDS011;45728;48.788;2.302;2022-07-05T06:37:57;9.10;;;4.05;;
59846;SDS011;45728;48.788;2.302;2022-07-05T06:40:37;9.48;;;3.85;;
59846;SDS011;45728;48.788;2.302;2022-07-05T06:43:07;8.27;;;4.10;;
59846;SDS011;45728;48.788;2.302;2022-07-05T06:45:34;11.82;;;4.55;;
59846;SDS011;45728;48.788;2.302;2022-07-05T06:48:02;10.43;;;4.78;;
59846;SDS011;45728;48.788;2.302;2022-07-05T06:50:35;8.02;;;4.32;;
59846;SDS011;45728;48.788;2.302;2022-07-05T06:53:02;7.13;;;4.38;;
59846;SDS011;45728;48.788;2.302;2022-07-05T06:55:29;10.80;;;4.30;;
59846;SDS011;45728;48.788;2.302;2022-07-05T06:57:56;13.40;;;4.22;;
59846;SDS011;45728;48.788;2.302;2022-07-05T07:00:30;10.30;;;4.78;;
59846;SDS011;45728;48.788;2.302;2022-07-05T07:02:57;13.68;;;4.68;;
59846;SDS011;45728;48.788;2.302;2022-07-05T07:05:24;9.50;;;4.35;;
59846;SDS011;45728;48.788;2.302;2022-07-05T07:07:50;11.40;;;4.13;;
59846;SDS011;45728;48.788;2.302;2022-07-05T07:10:35;7.13;;;3.92;;
59846;SDS011;45728;48.788;2.302;2022-07-05T07:13:02;7.15;;;3.55;;
59846;SDS011;45728;48.788;2.302;2022-07-05T07:15:29;7.18;;;3.45;;
59846;SDS011;45728;48.788;2.302;2022-07-05T07:17:56;7.97;;;3.67;;
59846;SDS011;45728;48.788;2.302;2022-07-05T07:20:22;10.38;;;4.40;;
59846;SDS011;45728;48.788;2.302;2022-07-05T07:22:48;11.73;;;4.03;;
59846;SDS011;45728;48.788;2.302;2022-07-05T07:25:15;7.85;;;4.03;;
59846;SDS011;45728;48.788;2.302;2022-07-05T07:27:44;8.60;;;3.83;;
59846;SDS011;45728;48.788;2.302;2022-07-05T07:30:12;9.55;;;3.95;;
59846;SDS011;45728;48.788;2.302;2022-07-05T07:32:39;7.85;;;4.00;;
59846;SDS011;45728;48.788;2.302;2022-07-05T07:35:06;6.57;;;3.92;;
59846;SDS011;45728;48.788;2.302;2022-07-05T07:37:33;10.00;;;4.30;;
59846;SDS011;45728;48.788;2.302;2022-07-05T07:39:59;10.25;;;4.55;;
59846;SDS011;45728;48.788;2.302;2022-07-05T07:42:27;7.82;;;3.92;;
59846;SDS011;45728;48.788;2.302;2022-07-05T07:44:53;6.25;;;3.72;;
59846;SDS011;45728;48.788;2.302;2022-07-05T07:47:19;9.05;;;4.07;;
59846;SDS011;45728;48.788;2.302;2022-07-05T07:49:45;8.02;;;3.75;;
59846;SDS011;45728;48.788;2.302;2022-07-05T07:52:12;12.10;;;3.70;;
59846;SDS011;45728;48.788;2.302;2022-07-05T07:54:38;7.25;;;3.30;;
59846;SDS011;45728;48.788;2.302;2022-07-05T07:57:04;8.55;;;3.80;;
59846;SDS011;45728;48.788;2.302;2022-07-05T07:59:33;9.98;;;4.13;;
59846;SDS011;45728;48.788;2.302;2022-07-05T08:02:00;10.73;;;3.22;;
59846;SDS011;45728;48.788;2.302;2022-07-05T08:04:26;9.30;;;3.60;;
59846;SDS011;45728;48.788;2.302;2022-07-05T08:06:52;7.53;;;3.90;;
59846;SDS011;45728;48.788;2.302;2022-07-05T08:09:18;9.52;;;3.42;;
59846;SDS011;45728;48.788;2.302;2022-07-05T08:11:45;11.02;;;3.55;;
59846;SDS011;45728;48.788;2.302;2022-07-05T08:14:12;10.63;;;4.35;;
59846;SDS011;45728;48.788;2.302;2022-07-05T08:16:40;9.38;;;3.97;;
59846;SDS011;45728;48.788;2.302;2022-07-05T08:19:07;7.07;;;3.88;;
59846;SDS011;45728;48.788;2.302;2022-07-05T08:21:51;6.38;;;2.72;;
59846;SDS011;45728;48.788;2.302;2022-07-05T08:24:17;5.30;;;2.63;;
59846;SDS011;45728;48.788;2.302;2022-07-05T08:26:43;11.10;;;3.28;;
59846;SDS011;45728;48.788;2.302;2022-07-05T08:29:10;7.30;;;3.25;;
59846;SDS011;45728;48.788;2.302;2022-07-05T08:31:41;5.65;;;3.38;;
59846;SDS011;45728;48.788;2.302;2022-07-05T08:34:09;7.47;;;2.97;;
59846;SDS011;45728;48.788;2.302;2022-07-05T08:36:36;5.65;;;2.10;;
59846;SDS011;45728;48.788;2.302;2022-07-05T08:39:03;6.53;;;3.15;;
59846;SDS011;45728;48.788;2.302;2022-07-05T08:41:29;3.97;;;2.30;;
59846;SDS011;45728;48.788;2.302;2022-07-05T08:43:59;5.18;;;2.22;;
59846;SDS011;45728;48.788;2.302;2022-07-05T08:46:27;5.13;;;2.78;;
59846;SDS011;45728;48.788;2.302;2022-07-05T08:48:56;6.90;;;2.22;;
59846;SDS011;45728;48.788;2.302;2022-07-05T08:51:25;6.22;;;2.55;;
59846;SDS011;45728;48.788;2.302;2022-07-05T08:53:54;5.80;;;2.95;;
59846;SDS011;45728;48.788;2.302;2022-07-05T08:56:23;4.03;;;1.85;;
59846;SDS011;45728;48.788;2.302;2022-07-05T08:58:49;5.90;;;2.55;;
59846;SDS011;45728;48.788;2.302;2022-07-05T09:01:16;6.35;;;2.58;;
59846;SDS011;45728;48.788;2.302;2022-07-05T09:03:42;6.75;;;2.20;;
59846;SDS011;45728;48.788;2.302;2022-07-05T09:06:13;5.53;;;2.42;;
59846;SDS011;45728;48.788;2.302;2022-07-05T09:08:41;5.95;;;2.10;;
59846;SDS011;45728;48.788;2.302;2022-07-05T09:11:09;4.60;;;2.50;;
59846;SDS011;45728;48.788;2.302;2022-07-05T09:13:38;5.18;;;2.30;;
59846;SDS011;45728;48.788;2.302;2022-07-05T09:16:08;3.40;;;2.15;;
59846;SDS011;45728;48.788;2.302;2022-07-05T09:18:47;3.35;;;1.73;;
59846;SDS011;45728;48.788;2.302;2022-07-05T09:23:52;8.13;;;2.53;;
59846;SDS011;45728;48.788;2.302;2022-07-05T09:26:19;2.42;;;1.52;;
59846;SDS011;45728;48.788;2.302;2022-07-05T09:28:55;4.88;;;1.95;;
59846;SDS011;45728;48.788;2.302;2022-07-05T09:31:29;5.95;;;2.53;;
59846;SDS011;45728;48.788;2.302;2022-07-05T09:34:12;5.78;;;2.50;;
59846;SDS011;45728;48.788;2.302;2022-07-05T09:47:17;5.95;;;2.03;;
59846;SDS011;45728;48.788;2.302;2022-07-05T09:55:11;2.92;;;1.80;;
59846;SDS011;45728;48.788;2.302;2022-07-05T09:57:42;3.33;;;1.60;;
59846;SDS011;45728;48.788;2.302;2022-07-05T10:00:13;6.80;;;2.15;;
59846;SDS011;45728;48.788;2.302;2022-07-05T10:02:42;11.48;;;6.65;;
59846;SDS011;45728;48.788;2.302;2022-07-05T10:05:19;5.78;;;2.30;;
59846;SDS011;45728;48.788;2.302;2022-07-05T10:07:50;4.82;;;1.95;;
59846;SDS011;45728;48.788;2.302;2022-07-05T10:10:18;4.22;;;2.00;;
59846;SDS011;45728;48.788;2.302;2022-07-05T10:12:46;5.78;;;2.55;;
59846;SDS011;45728;48.788;2.302;2022-07-05T10:15:14;4.78;;;1.75;;
59846;SDS011;45728;48.788;2.302;2022-07-05T10:18:16;4.45;;;2.35;;
59846;SDS011;45728;48.788;2.302;2022-07-05T10:20:48;4.50;;;2.20;;
59846;SDS011;45728;48.788;2.302;2022-07-05T10:23:18;9.48;;;2.35;;
59846;SDS011;45728;48.788;2.302;2022-07-05T10:25:45;5.22;;;2.20;;
59846;SDS011;45728;48.788;2.302;2022-07-05T10:28:17;4.32;;;1.90;;
59846;SDS011;45728;48.788;2.302;2022-07-05T10:30:44;6.18;;;2.10;;
59846;SDS011;45728;48.788;2.302;2022-07-05T10:33:12;6.07;;;2.38;;
59846;SDS011;45728;48.788;2.302;2022-07-05T10:35:42;4.25;;;1.83;;
59846;SDS011;45728;48.788;2.302;2022-07-05T10:38:12;6.15;;;2.10;;
59846;SDS011;45728;48.788;2.302;2022-07-05T10:40:40;5.43;;;2.10;;
59846;SDS011;45728;48.788;2.302;2022-07-05T10:43:08;2.88;;;1.83;;
59846;SDS011;45728;48.788;2.302;2022-07-05T10:45:36;3.40;;;2.30;;
59846;SDS011;45728;48.788;2.302;2022-07-05T11:03:41;6.53;;;1.92;;
59846;SDS011;45728;48.788;2.302;2022-07-05T11:06:18;5.00;;;1.98;;
59846;SDS011;45728;48.788;2.302;2022-07-05T11:11:34;3.22;;;1.98;;
59846;SDS011;45728;48.788;2.302;2022-07-05T11:14:02;2.85;;;1.90;;
59846;SDS011;45728;48.788;2.302;2022-07-05T11:16:31;4.15;;;1.98;;
59846;SDS011;45728;48.788;2.302;2022-07-05T11:21:35;4.00;;;1.65;;
59846;SDS011;45728;48.788;2.302;2022-07-05T11:26:45;6.05;;;2.45;;
59846;SDS011;45728;48.788;2.302;2022-07-05T11:29:51;5.72;;;2.00;;
59846;SDS011;45728;48.788;2.302;2022-07-05T11:32:22;7.82;;;2.42;;
59846;SDS011;45728;48.788;2.302;2022-07-05T11:35:14;4.30;;;2.10;;
59846;SDS011;45728;48.788;2.302;2022-07-05T11:40:29;4.05;;;2.20;;
59846;SDS011;45728;48.788;2.302;2022-07-05T11:43:00;4.63;;;2.17;;
59846;SDS011;45728;48.788;2.302;2022-07-05T11:45:28;4.50;;;2.22;;
59846;SDS011;45728;48.788;2.302;2022-07-05T11:47:55;4.28;;;2.20;;
59846;SDS011;45728;48.788;2.302;2022-07-05T11:50:32;4.15;;;2.53;;
59846;SDS011;45728;48.788;2.302;2022-07-05T11:53:00;4.20;;;1.95;;
59846;SDS011;45728;48.788;2.302;2022-07-05T11:55:27;5.03;;;1.80;;
59846;SDS011;45728;48.788;2.302;2022-07-05T11:57:55;3.22;;;1.63;;
59846;SDS011;45728;48.788;2.302;2022-07-05T12:00:40;4.07;;;1.90;;
59846;SDS011;45728;48.788;2.302;2022-07-05T12:03:13;3.67;;;1.90;;
59846;SDS011;45728;48.788;2.302;2022-07-05T12:05:41;3.10;;;1.77;;
59846;SDS011;45728;48.788;2.302;2022-07-05T12:08:07;3.58;;;1.90;;
59846;SDS011;45728;48.788;2.302;2022-07-05T12:10:35;1.95;;;1.67;;
59846;SDS011;45728;48.788;2.302;2022-07-05T12:13:20;2.42;;;1.70;;
59846;SDS011;45728;48.788;2.302;2022-07-05T12:15:47;2.80;;;1.70;;
59846;SDS011;45728;48.788;2.302;2022-07-05T12:18:13;2.58;;;1.83;;
59846;SDS011;45728;48.788;2.302;2022-07-05T12:20:41;2.70;;;1.60;;
59846;SDS011;45728;48.788;2.302;2022-07-05T12:23:07;3.72;;;1.63;;
59846;SDS011;45728;48.788;2.302;2022-07-05T12:25:34;4.07;;;1.70;;
59846;SDS011;45728;48.788;2.302;2022-07-05T12:28:01;6.03;;;1.85;;
59846;SDS011;45728;48.788;2.302;2022-07-05T12:30:31;5.55;;;1.70;;
59846;SDS011;45728;48.788;2.302;2022-07-05T12:38:10;4.47;;;1.80;;
59846;SDS011;45728;48.788;2.302;2022-07-05T12:40:43;1.75;;;1.40;;
59846;SDS011;45728;48.788;2.302;2022-07-05T12:43:14;3.72;;;1.60;;
59846;SDS011;45728;48.788;2.302;2022-07-05T12:45:42;5.22;;;1.98;;
59846;SDS011;45728;48.788;2.302;2022-07-05T12:48:10;2.97;;;1.60;;
59846;SDS011;45728;48.788;2.302;2022-07-05T12:50:43;2.67;;;1.80;;
59846;SDS011;45728;48.788;2.302;2022-07-05T12:53:10;2.40;;;1.48;;
59846;SDS011;45728;48.788;2.302;2022-07-05T12:55:59;3.50;;;1.88;;
59846;SDS011;45728;48.788;2.302;2022-07-05T13:01:20;3.83;;;1.60;;
59846;SDS011;45728;48.788;2.302;2022-07-05T13:04:07;4.20;;;1.60;;
59846;SDS011;45728;48.788;2.302;2022-07-05T13:14:34;2.88;;;1.35;;
59846;SDS011;45728;48.788;2.302;2022-07-05T13:17:01;3.80;;;1.35;;
59846;SDS011;45728;48.788;2.302;2022-07-05T13:19:27;3.28;;;1.75;;
59846;SDS011;45728;48.788;2.302;2022-07-05T13:21:53;2.08;;;1.40;;
59846;SDS011;45728;48.788;2.302;2022-07-05T13:24:19;6.35;;;1.48;;
59846;SDS011;45728;48.788;2.302;2022-07-05T13:26:45;3.17;;;1.50;;
59846;SDS011;45728;48.788;2.302;2022-07-05T13:29:12;3.75;;;1.63;;
59846;SDS011;45728;48.788;2.302;2022-07-05T13:31:38;2.35;;;1.38;;
59846;SDS011;45728;48.788;2.302;2022-07-05T13:34:04;3.50;;;1.50;;
59846;SDS011;45728;48.788;2.302;2022-07-05T13:36:30;2.35;;;1.50;;
59846;SDS011;45728;48.788;2.302;2022-07-05T13:38:56;3.75;;;1.60;;
59846;SDS011;45728;48.788;2.302;2022-07-05T13:41:22;3.90;;;1.35;;
59846;SDS011;45728;48.788;2.302;2022-07-05T13:43:48;5.22;;;1.50;;
59846;SDS011;45728;48.788;2.302;2022-07-05T13:46:14;3.50;;;1.48;;
59846;SDS011;45728;48.788;2.302;2022-07-05T13:48:40;2.45;;;1.30;;
59846;SDS011;45728;48.788;2.302;2022-07-05T13:51:07;2.38;;;1.10;;
59846;SDS011;45728;48.788;2.302;2022-07-05T13:53:33;1.73;;;1.10;;
59846;SDS011;45728;48.788;2.302;2022-07-05T13:55:59;2.15;;;1.40;;
59846;SDS011;45728;48.788;2.302;2022-07-05T13:58:28;4.80;;;1.40;;
59846;SDS011;45728;48.788;2.302;2022-07-05T14:00:54;5.63;;;1.35;;
59846;SDS011;45728;48.788;2.302;2022-07-05T14:03:20;1.20;;;1.10;;
59846;SDS011;45728;48.788;2.302;2022-07-05T14:05:46;2.50;;;1.33;;
59846;SDS011;45728;48.788;2.302;2022-07-05T14:08:13;2.78;;;1.48;;
59846;SDS011;45728;48.788;2.302;2022-07-05T14:10:40;3.85;;;1.13;;
59846;SDS011;45728;48.788;2.302;2022-07-05T14:13:06;2.72;;;1.30;;
59846;SDS011;45728;48.788;2.302;2022-07-05T14:15:32;1.67;;;1.10;;
59846;SDS011;45728;48.788;2.302;2022-07-05T14:17:58;3.05;;;1.10;;
59846;SDS011;45728;48.788;2.302;2022-07-05T14:20:28;4.32;;;1.20;;
59846;SDS011;45728;48.788;2.302;2022-07-05T14:22:54;1.63;;;1.23;;
59846;SDS011;45728;48.788;2.302;2022-07-05T14:25:20;1.80;;;1.02;;
59846;SDS011;45728;48.788;2.302;2022-07-05T14:27:46;2.70;;;1.27;;
59846;SDS011;45728;48.788;2.302;2022-07-05T14:30:12;3.70;;;1.60;;
59846;SDS011;45728;48.788;2.302;2022-07-05T14:32:41;7.90;;;1.60;;
59846;SDS011;45728;48.788;2.302;2022-07-05T14:35:07;1.50;;;1.10;;
59846;SDS011;45728;48.788;2.302;2022-07-05T14:37:33;1.77;;;1.20;;
59846;SDS011;45728;48.788;2.302;2022-07-05T14:40:00;4.30;;;1.40;;
59846;SDS011;45728;48.788;2.302;2022-07-05T14:42:26;1.40;;;1.13;;
59846;SDS011;45728;48.788;2.302;2022-07-05T14:44:52;3.78;;;1.20;;
59846;SDS011;45728;48.788;2.302;2022-07-05T14:47:18;2.17;;;1.35;;
59846;SDS011;45728;48.788;2.302;2022-07-05T14:49:44;1.92;;;1.02;;
59846;SDS011;45728;48.788;2.302;2022-07-05T14:52:10;2.47;;;1.20;;
59846;SDS011;45728;48.788;2.302;2022-07-05T14:54:36;1.45;;;1.10;;
59846;SDS011;45728;48.788;2.302;2022-07-05T14:57:02;1.85;;;1.20;;
59846;SDS011;45728;48.788;2.302;2022-07-05T14:59:28;3.90;;;1.50;;
59846;SDS011;45728;48.788;2.302;2022-07-05T15:01:56;10.27;;;1.30;;
59846;SDS011;45728;48.788;2.302;2022-07-05T15:04:22;4.68;;;1.23;;
59846;SDS011;45728;48.788;2.302;2022-07-05T15:06:48;2.15;;;1.30;;
59846;SDS011;45728;48.788;2.302;2022-07-05T15:09:14;2.30;;;1.33;;
59846;SDS011;45728;48.788;2.302;2022-07-05T15:11:40;1.40;;;1.00;;
59846;SDS011;45728;48.788;2.302;2022-07-05T15:14:06;1.65;;;1.30;;
59846;SDS011;45728;48.788;2.302;2022-07-05T15:16:32;3.65;;;1.40;;
59846;SDS011;45728;48.788;2.302;2022-07-05T15:19:00;4.03;;;1.35;;
59846;SDS011;45728;48.788;2.302;2022-07-05T15:21:26;1.35;;;1.25;;
59846;SDS011;45728;48.788;2.302;2022-07-05T15:23:52;5.28;;;1.52;;
59846;SDS011;45728;48.788;2.302;2022-07-05T15:26:21;2.80;;;1.40;;
59846;SDS011;45728;48.788;2.302;2022-07-05T15:28:47;2.42;;;1.35;;
59846;SDS011;45728;48.788;2.302;2022-07-05T15:31:13;2.28;;;1.45;;
59846;SDS011;45728;48.788;2.302;2022-07-05T15:33:39;2.88;;;1.30;;
59846;SDS011;45728;48.788;2.302;2022-07-05T15:36:05;2.83;;;1.30;;
59846;SDS011;45728;48.788;2.302;2022-07-05T15:38:31;1.50;;;1.40;;
59846;SDS011;45728;48.788;2.302;2022-07-05T15:40:58;2.85;;;1.23;;
59846;SDS011;45728;48.788;2.302;2022-07-05T15:43:27;4.63;;;1.30;;
59846;SDS011;45728;48.788;2.302;2022-07-05T15:45:53;2.20;;;1.30;;
59846;SDS011;45728;48.788;2.302;2022-07-05T15:48:22;3.35;;;1.45;;
59846;SDS011;45728;48.788;2.302;2022-07-05T15:50:48;2.70;;;1.50;;
59846;SDS011;45728;48.788;2.302;2022-07-05T15:53:14;2.25;;;1.35;;